Weather at Gamarmalamo Airport

Public forecast

Using degrees Celsius for public forecast. Weather courtesy of forecast.io.

Closest aviation weather report (METAR) to Gamarmalamo Airport

Closest report is Sam Ratulangi Airport, 172.5 nm (319.5 km) W. Retrieved 2021/01/26 19:30 UTC (58 minutes ago):

WAMM 261930Z VRB01KT 9000 SCT020 23/23 Q1008 NOSIG

Aviation forecast (TAF) for Gamarmalamo Airport

Forecast is more than 12 hours old.

Retrieved 2014/03/16 06:20 UTC (7 years ago):

TAF WAMA 120500Z 1206/1218 36007KT 9000 SCT018 TEMPO 1206/1209 6000 RA SCT015 BECMG 1210/1212 09004KT 8000